KAUN

Auburn Municipal Airport

Auburn, California, USA
METAR KAUN 220635Z AUTO 10005KT 10SM CLR 15/09 A3005 RMK AO1
Observed Flight Rules
Apr-22 @ 06:35 UTC (24 minutes ago) Visual Flight Rules
Wind Visibility Clouds
100° at 5 knots 10 miles
  • Clear skies
Temperatures Readings
Current 15°C / 59°F
Dewpoint 9°C / 48°F
Humidity 68%
Altimeter 30.05" Hg
Pressure 1018 hPa
Elevation 467
METAR KAUN 220635Z AUTO 10005KT 10SM CLR 15/09 A3005 RMK AO1
Observed Flight Rules
Apr-22 @ 06:35 UTC
(24 minutes ago)
VFR
Wind Visibility
100° at 5 knots 10 miles
Clouds
  • Clear skies
Temperature Dewpoint
15°C / 59°F 9°C / 48°F
Humidity Altimeter Pressure
68% 30.05" Hg 1018 hPa